createdAt,value
2022-12-09T00:00:31.072Z,1.68
2022-12-09T00:01:07.633Z,1.66
2022-12-09T00:01:39.149Z,1.57
2022-12-09T00:02:10.799Z,1.71
2022-12-09T00:02:42.925Z,1.80
2022-12-09T00:03:17.781Z,1.86
2022-12-09T00:03:51.809Z,1.90
2022-12-09T00:04:24.163Z,1.88
2022-12-09T00:04:55.870Z,1.93
2022-12-09T00:05:27.526Z,2.01
2022-12-09T00:05:59.165Z,2.02
2022-12-09T00:06:30.914Z,2.07
2022-12-09T00:07:02.648Z,2.09
2022-12-09T00:07:37.421Z,2.15
2022-12-09T00:08:09.190Z,2.17
2022-12-09T00:08:41.004Z,2.19
2022-12-09T00:09:15.382Z,2.16
2022-12-09T00:09:46.901Z,2.18
2022-12-09T00:10:18.712Z,2.18
2022-12-09T00:10:50.390Z,2.19
2022-12-09T00:11:22.659Z,2.21
2022-12-09T00:11:54.294Z,2.17
2022-12-09T00:12:25.862Z,2.06
2022-12-09T00:12:57.334Z,2.08
2022-12-09T00:13:30.018Z,2.09
2022-12-09T00:14:01.544Z,2.11
2022-12-09T00:14:33.219Z,2.03
2022-12-09T00:15:05.066Z,2.08
2022-12-09T00:15:41.311Z,2.09
2022-12-09T00:16:14.731Z,2.10
2022-12-09T00:16:46.578Z,2.13
2022-12-09T00:17:18.388Z,2.02
2022-12-09T00:17:50.062Z,2.05
2022-12-09T00:18:21.560Z,1.94
2022-12-09T00:18:53.148Z,1.97
2022-12-09T00:19:24.697Z,1.98
2022-12-09T00:19:56.165Z,2.00
2022-12-09T00:20:27.687Z,1.96
2022-12-09T00:20:59.142Z,2.00
2022-12-09T00:21:32.488Z,1.83
2022-12-09T00:22:04.077Z,1.78
2022-12-09T00:22:35.564Z,1.69
2022-12-09T00:23:07.085Z,1.73
2022-12-09T00:23:38.664Z,1.77
2022-12-09T00:24:12.069Z,1.62
2022-12-09T00:24:44.106Z,1.53
2022-12-09T00:25:15.744Z,1.56
2022-12-09T00:25:47.349Z,1.56
2022-12-09T00:26:20.071Z,1.62
2022-12-09T00:26:51.663Z,1.60
2022-12-09T00:27:23.208Z,1.56
2022-12-09T00:27:54.694Z,1.70
2022-12-09T00:28:26.560Z,1.76
2022-12-09T00:28:58.332Z,1.74
2022-12-09T00:29:30.215Z,1.69
2022-12-09T00:30:01.775Z,1.67
2022-12-09T00:30:33.324Z,1.66
2022-12-09T00:31:05.619Z,1.68
2022-12-09T00:31:37.953Z,1.70
2022-12-09T00:32:09.763Z,1.66
2022-12-09T00:32:42.456Z,1.68
2022-12-09T00:33:14.071Z,1.66
2022-12-09T00:33:46.003Z,1.67
2022-12-09T00:34:17.552Z,1.64
2022-12-09T00:34:49.154Z,1.61
2022-12-09T00:35:20.873Z,1.67
2022-12-09T00:35:52.595Z,1.63
2022-12-09T00:36:24.723Z,1.67
2022-12-09T00:36:56.253Z,1.75
2022-12-09T00:37:27.784Z,1.68
2022-12-09T00:37:59.546Z,1.68
2022-12-09T00:38:31.285Z,1.63
2022-12-09T00:39:03.078Z,1.57
2022-12-09T00:39:34.638Z,1.61
2022-12-09T00:40:07.208Z,1.69
2022-12-09T00:40:39.521Z,1.74
2022-12-09T00:41:12.163Z,1.65
2022-12-09T00:41:43.722Z,1.70
2022-12-09T00:42:15.350Z,1.63
2022-12-09T00:42:47.095Z,1.60
2022-12-09T00:43:18.595Z,1.58
2022-12-09T00:43:50.241Z,1.50
2022-12-09T00:44:21.989Z,1.57
2022-12-09T00:44:53.772Z,1.64
2022-12-09T00:45:25.605Z,1.64
2022-12-09T00:45:57.224Z,1.64
2022-12-09T00:46:28.913Z,1.69
2022-12-09T00:47:00.784Z,1.75
2022-12-09T00:47:32.399Z,1.72
2022-12-09T00:48:04.017Z,1.80
2022-12-09T00:48:37.226Z,1.79
2022-12-09T00:49:10.493Z,1.80
2022-12-09T00:49:42.049Z,1.85
2022-12-09T00:50:13.717Z,1.80
2022-12-09T00:50:46.264Z,1.67
2022-12-09T00:51:20.368Z,1.60
2022-12-09T00:51:54.085Z,1.48
2022-12-09T00:52:26.719Z,1.46
2022-12-09T00:52:58.254Z,1.41
2022-12-09T00:53:30.060Z,1.39
2022-12-09T00:54:02.748Z,1.39
2022-12-09T00:54:34.573Z,1.37
2022-12-09T00:55:06.677Z,1.38
2022-12-09T00:55:39.022Z,1.38
2022-12-09T00:56:11.016Z,1.39
2022-12-09T00:56:42.781Z,1.39
2022-12-09T00:57:14.604Z,1.40
2022-12-09T00:57:46.354Z,1.33
2022-12-09T00:58:18.122Z,1.47
2022-12-09T00:58:49.729Z,1.49
2022-12-09T00:59:21.240Z,1.59
2022-12-09T00:59:52.916Z,1.49
2022-12-09T01:00:24.489Z,1.55
2022-12-09T01:00:56.251Z,1.43
2022-12-09T01:01:28.700Z,1.30
2022-12-09T01:02:00.669Z,1.19
2022-12-09T01:02:32.526Z,1.31
2022-12-09T01:03:04.543Z,1.20
2022-12-09T01:03:36.550Z,1.21
2022-12-09T01:04:08.902Z,1.17
2022-12-09T01:04:41.054Z,1.14
2022-12-09T01:05:12.929Z,1.14
2022-12-09T01:05:44.468Z,1.13
2022-12-09T01:06:22.255Z,1.13
2022-12-09T01:06:53.845Z,1.13
2022-12-09T01:07:25.331Z,1.11
2022-12-09T01:07:56.934Z,1.03
2022-12-09T01:08:28.575Z,1.03
2022-12-09T01:09:00.243Z,1.03
2022-12-09T01:09:34.345Z,1.08
2022-12-09T01:10:07.711Z,0.89
2022-12-09T01:10:41.458Z,0.87
2022-12-09T01:11:19.955Z,0.90
2022-12-09T01:11:52.338Z,0.86
2022-12-09T01:12:24.577Z,0.87
2022-12-09T01:12:56.204Z,0.88
2022-12-09T01:13:27.684Z,0.89
2022-12-09T01:14:01.589Z,0.88
2022-12-09T01:14:33.115Z,0.92
2022-12-09T01:15:06.983Z,0.84
2022-12-09T01:15:38.832Z,0.69
2022-12-09T01:16:15.217Z,0.71
2022-12-09T01:16:46.902Z,0.79
2022-12-09T01:17:18.824Z,1.00
2022-12-09T01:17:50.415Z,0.96
2022-12-09T01:18:22.142Z,0.91
2022-12-09T01:18:55.697Z,0.90
2022-12-09T01:19:27.448Z,0.86
2022-12-09T01:19:59.075Z,0.87
2022-12-09T01:20:31.546Z,0.85
2022-12-09T01:21:03.904Z,0.88
2022-12-09T01:21:35.529Z,0.83
2022-12-09T01:22:09.969Z,0.85
2022-12-09T01:22:41.706Z,0.83
2022-12-09T01:23:13.299Z,0.76
2022-12-09T01:23:44.910Z,0.79
2022-12-09T01:24:16.511Z,0.87
2022-12-09T01:24:48.019Z,0.88
2022-12-09T01:25:19.522Z,0.89
2022-12-09T01:25:51.218Z,1.11
2022-12-09T01:26:22.769Z,1.24
2022-12-09T01:26:54.722Z,1.24
2022-12-09T01:27:26.639Z,1.27
2022-12-09T01:27:58.198Z,1.34
2022-12-09T01:28:29.769Z,1.33
2022-12-09T01:29:01.970Z,1.36
2022-12-09T01:29:33.959Z,1.30
2022-12-09T01:30:07.167Z,1.20
2022-12-09T01:30:38.848Z,1.15
2022-12-09T01:31:17.801Z,1.24
2022-12-09T01:31:49.946Z,1.10
2022-12-09T01:32:22.028Z,1.10
2022-12-09T01:32:53.944Z,1.09
2022-12-09T01:33:25.472Z,1.19
2022-12-09T01:33:57.499Z,1.19
2022-12-09T01:34:30.261Z,1.13
2022-12-09T01:35:03.204Z,1.16
2022-12-09T01:35:34.758Z,1.16
2022-12-09T01:36:08.487Z,1.30
2022-12-09T01:36:40.251Z,1.38
2022-12-09T01:37:11.876Z,1.28
2022-12-09T01:37:43.372Z,1.20
2022-12-09T01:38:14.911Z,1.20
2022-12-09T01:38:47.398Z,1.26
2022-12-09T01:39:19.095Z,1.29
2022-12-09T01:39:50.731Z,1.40
2022-12-09T01:40:22.492Z,1.51
2022-12-09T01:40:53.974Z,1.49
2022-12-09T01:41:26.154Z,1.39
2022-12-09T01:41:57.736Z,1.33
2022-12-09T01:42:29.677Z,1.28
2022-12-09T01:43:01.289Z,1.24
2022-12-09T01:43:32.982Z,1.17
2022-12-09T01:44:20.226Z,1.24
2022-12-09T01:45:32.303Z,1.22
2022-12-09T01:46:04.233Z,1.22
2022-12-09T01:46:35.918Z,1.21
2022-12-09T01:47:21.522Z,1.16
2022-12-09T01:48:06.904Z,1.15
2022-12-09T01:48:41.626Z,1.12
2022-12-09T01:49:17.229Z,1.15
2022-12-09T01:49:48.972Z,1.29
2022-12-09T01:50:20.784Z,1.39
2022-12-09T01:50:55.549Z,1.45
2022-12-09T01:51:27.349Z,1.41
2022-12-09T01:52:13.653Z,1.41
2022-12-09T01:52:46.159Z,1.46
2022-12-09T01:53:19.030Z,1.47
2022-12-09T01:53:51.371Z,1.50
2022-12-09T01:54:23.611Z,1.57
2022-12-09T01:54:55.354Z,1.56
2022-12-09T01:55:27.831Z,1.53
2022-12-09T01:56:02.062Z,1.54
2022-12-09T01:56:35.319Z,1.51
2022-12-09T01:57:07.795Z,1.48
2022-12-09T01:57:39.722Z,1.45
2022-12-09T01:58:11.541Z,1.43
2022-12-09T01:58:44.385Z,1.42
2022-12-09T01:59:16.487Z,1.31
2022-12-09T01:59:48.707Z,1.24
2022-12-09T02:00:21.133Z,1.17
2022-12-09T02:00:54.732Z,1.17
2022-12-09T02:01:26.609Z,1.11
2022-12-09T02:02:00.200Z,1.13
2022-12-09T02:02:33.024Z,1.17
2022-12-09T02:03:05.927Z,1.15
2022-12-09T02:03:38.799Z,1.14
2022-12-09T02:04:10.840Z,1.15
2022-12-09T02:04:46.083Z,1.10
2022-12-09T02:05:18.853Z,1.09
2022-12-09T02:05:55.170Z,1.07
2022-12-09T02:06:26.913Z,1.08
2022-12-09T02:07:00.797Z,1.10
2022-12-09T02:07:32.720Z,1.16
2022-12-09T02:08:10.045Z,1.12
2022-12-09T02:08:41.928Z,1.12
2022-12-09T02:09:13.856Z,1.14
2022-12-09T02:09:53.533Z,1.10
2022-12-09T02:10:34.067Z,1.10
2022-12-09T02:11:26.059Z,1.11
2022-12-09T02:12:12.996Z,1.12
2022-12-09T02:12:58.791Z,1.12
2022-12-09T02:13:52.161Z,1.09
2022-12-09T02:14:25.022Z,1.12
2022-12-09T02:15:04.635Z,1.11
2022-12-09T02:15:48.218Z,1.11
2022-12-09T02:16:23.295Z,1.13
2022-12-09T02:17:32.188Z,1.14
2022-12-09T02:18:16.589Z,0.96
2022-12-09T02:18:52.323Z,0.87
2022-12-09T02:19:45.123Z,0.88
2022-12-09T02:20:27.066Z,1.09
2022-12-09T02:21:04.590Z,1.14
2022-12-09T02:21:45.830Z,1.07
2022-12-09T02:22:23.502Z,1.03
2022-12-09T02:23:19.994Z,1.04
2022-12-09T02:23:59.357Z,0.89
2022-12-09T02:24:55.555Z,0.89
2022-12-09T02:25:40.775Z,0.85
2022-12-09T02:26:38.451Z,0.89
2022-12-09T02:27:13.393Z,0.95
2022-12-09T02:27:59.822Z,0.92
2022-12-09T02:28:37.996Z,0.98
2022-12-09T02:29:15.469Z,1.00
2022-12-09T02:29:50.559Z,0.99
2022-12-09T02:30:33.456Z,1.01
2022-12-09T02:31:22.430Z,1.02
2022-12-09T02:32:03.955Z,1.05
2022-12-09T02:32:50.087Z,1.10
2022-12-09T02:33:55.363Z,1.06
2022-12-09T02:34:28.862Z,1.08
2022-12-09T02:35:14.733Z,1.09
2022-12-09T02:35:56.751Z,1.06
2022-12-09T02:36:35.736Z,1.03
2022-12-09T02:37:20.857Z,1.04
2022-12-09T02:38:23.964Z,1.06
2022-12-09T02:38:57.818Z,1.04
2022-12-09T02:39:36.623Z,1.08
2022-12-09T02:40:23.157Z,1.03
2022-12-09T02:41:04.307Z,1.00
2022-12-09T02:41:40.039Z,1.09
2022-12-09T02:42:17.318Z,1.02
2022-12-09T02:42:50.226Z,1.17
2022-12-09T02:43:26.033Z,1.22
2022-12-09T02:44:08.369Z,1.24
2022-12-09T02:44:40.744Z,1.27
2022-12-09T02:45:15.314Z,1.27
2022-12-09T02:45:51.747Z,1.31
2022-12-09T02:46:24.440Z,1.33
2022-12-09T02:46:58.490Z,1.33
2022-12-09T02:47:32.503Z,1.12
2022-12-09T02:48:06.280Z,1.08
2022-12-09T02:48:42.261Z,1.03
2022-12-09T02:49:14.882Z,1.05
2022-12-09T02:49:51.864Z,0.99
2022-12-09T02:50:28.589Z,0.95
2022-12-09T02:51:03.739Z,0.97
2022-12-09T02:51:37.988Z,0.93
2022-12-09T02:52:10.514Z,0.95
2022-12-09T02:52:44.143Z,0.91
2022-12-09T02:53:16.309Z,0.86
2022-12-09T02:53:52.661Z,0.85
2022-12-09T02:54:24.722Z,0.89
2022-12-09T02:55:00.375Z,0.83
2022-12-09T02:55:32.689Z,0.85
2022-12-09T02:56:06.258Z,0.90
2022-12-09T02:56:41.293Z,0.93
2022-12-09T02:57:22.538Z,0.99
2022-12-09T02:57:57.737Z,0.81
2022-12-09T02:58:29.372Z,0.82
2022-12-09T02:59:01.814Z,0.82
2022-12-09T02:59:33.727Z,0.81
2022-12-09T03:00:07.283Z,0.76
2022-12-09T03:00:41.000Z,0.70
2022-12-09T03:01:23.994Z,0.60
2022-12-09T03:02:08.309Z,0.63
2022-12-09T03:02:43.858Z,0.64
2022-12-09T03:03:17.135Z,0.62
2022-12-09T03:03:50.155Z,0.43
2022-12-09T03:04:24.821Z,0.51
2022-12-09T03:05:28.726Z,0.53
2022-12-09T03:06:05.395Z,0.51
2022-12-09T03:06:42.049Z,0.54
2022-12-09T03:07:35.941Z,0.63
2022-12-09T03:08:18.052Z,0.80
2022-12-09T03:08:52.403Z,0.88
2022-12-09T03:09:30.750Z,0.89
2022-12-09T03:10:08.502Z,0.95
2022-12-09T03:10:50.101Z,1.04
2022-12-09T03:11:23.139Z,1.04
2022-12-09T03:11:56.565Z,1.08
2022-12-09T03:12:30.722Z,1.03
2022-12-09T03:13:43.864Z,0.87
2022-12-09T03:14:23.004Z,0.88
2022-12-09T03:14:55.247Z,0.84
2022-12-09T03:15:28.201Z,0.86
2022-12-09T03:16:37.497Z,0.89
2022-12-09T03:17:35.744Z,0.92
2022-12-09T03:18:10.913Z,0.95
2022-12-09T03:18:46.497Z,0.92
2022-12-09T03:19:26.203Z,0.90
2022-12-09T03:20:05.897Z,0.89
2022-12-09T03:20:40.181Z,0.97
2022-12-09T03:21:14.580Z,1.08
2022-12-09T03:21:48.465Z,1.02
2022-12-09T03:22:24.837Z,1.11
2022-12-09T03:23:02.695Z,1.17
2022-12-09T03:23:34.371Z,1.18
2022-12-09T03:24:08.436Z,1.23
2022-12-09T03:24:47.374Z,1.28
2022-12-09T03:25:24.576Z,1.34
2022-12-09T03:26:00.186Z,1.21
2022-12-09T03:26:33.870Z,1.20
2022-12-09T03:27:09.727Z,1.14
2022-12-09T03:27:47.990Z,1.10
2022-12-09T03:28:24.461Z,1.06
2022-12-09T03:28:57.354Z,1.01
2022-12-09T03:29:29.385Z,1.05
2022-12-09T03:30:02.107Z,1.04
2022-12-09T03:30:36.131Z,1.02
2022-12-09T03:31:12.576Z,1.04
2022-12-09T03:31:45.113Z,1.04
2022-12-09T03:32:18.789Z,0.95
2022-12-09T03:32:51.587Z,0.96
2022-12-09T03:33:23.597Z,1.02
2022-12-09T03:33:57.900Z,1.04
2022-12-09T03:34:33.616Z,1.04
2022-12-09T03:35:09.441Z,1.01
2022-12-09T03:35:47.983Z,0.93
2022-12-09T03:36:20.700Z,0.97
2022-12-09T03:36:53.807Z,0.92
2022-12-09T03:37:26.653Z,1.03
2022-12-09T03:37:59.266Z,1.04
2022-12-09T03:38:34.372Z,1.10
2022-12-09T03:39:09.904Z,1.15
2022-12-09T03:39:42.513Z,1.15
2022-12-09T03:40:17.451Z,1.23
2022-12-09T03:40:53.441Z,1.26
2022-12-09T03:41:30.190Z,1.15
2022-12-09T03:42:05.059Z,1.13
2022-12-09T03:42:39.829Z,1.16
2022-12-09T03:43:14.564Z,1.12
2022-12-09T03:44:13.252Z,1.12
2022-12-09T03:44:54.965Z,1.11
2022-12-09T03:45:26.898Z,1.12
2022-12-09T03:45:59.158Z,1.13
2022-12-09T03:46:31.338Z,1.11
2022-12-09T03:47:05.216Z,1.13
2022-12-09T03:47:37.290Z,1.11
2022-12-09T03:48:09.742Z,1.12
2022-12-09T03:48:41.393Z,1.12
2022-12-09T03:49:13.554Z,1.15
2022-12-09T03:49:45.537Z,1.15
2022-12-09T03:50:17.328Z,1.15
2022-12-09T03:51:12.465Z,1.13
2022-12-09T03:51:53.774Z,1.13
2022-12-09T03:52:33.606Z,1.12
2022-12-09T03:53:16.765Z,1.11
2022-12-09T03:54:06.203Z,1.13
2022-12-09T03:54:44.674Z,1.14
2022-12-09T03:55:38.939Z,1.16
2022-12-09T03:56:22.968Z,1.14
2022-12-09T03:56:56.994Z,1.09
2022-12-09T03:57:29.354Z,1.09
2022-12-09T03:58:03.593Z,1.09
2022-12-09T03:58:37.019Z,1.06
2022-12-09T03:59:12.718Z,1.07
2022-12-09T03:59:52.000Z,1.07
2022-12-09T04:00:23.874Z,1.05
2022-12-09T04:00:55.466Z,1.12
2022-12-09T04:01:28.058Z,1.09
2022-12-09T04:01:59.899Z,1.06
2022-12-09T04:02:31.594Z,1.02
2022-12-09T04:03:06.501Z,1.03
2022-12-09T04:03:38.818Z,1.10
2022-12-09T04:04:11.079Z,1.11
2022-12-09T04:04:42.802Z,1.10
2022-12-09T04:05:14.715Z,1.10
2022-12-09T04:05:47.327Z,1.12
2022-12-09T04:06:19.032Z,1.15
2022-12-09T04:06:52.388Z,1.15
2022-12-09T04:07:24.321Z,1.10
2022-12-09T04:07:56.232Z,1.09
2022-12-09T04:08:27.947Z,1.09
2022-12-09T04:09:02.326Z,1.07
2022-12-09T04:09:35.238Z,1.09
2022-12-09T04:10:08.397Z,1.09
2022-12-09T04:10:40.413Z,1.07
2022-12-09T04:11:11.990Z,1.03
2022-12-09T04:11:43.575Z,1.01
2022-12-09T04:12:15.197Z,1.00
2022-12-09T04:12:46.800Z,0.98
2022-12-09T04:13:18.599Z,1.02
2022-12-09T04:13:50.103Z,1.06
2022-12-09T04:14:21.779Z,1.06
2022-12-09T04:14:53.266Z,1.00
2022-12-09T04:15:25.375Z,0.97
2022-12-09T04:15:56.861Z,0.92
2022-12-09T04:16:28.745Z,1.01
2022-12-09T04:17:00.488Z,0.99
2022-12-09T04:17:32.474Z,1.02
2022-12-09T04:18:04.775Z,1.00
2022-12-09T04:18:36.584Z,1.02
2022-12-09T04:19:08.387Z,1.00
2022-12-09T04:19:40.268Z,0.99
2022-12-09T04:20:12.989Z,1.15
2022-12-09T04:20:46.802Z,1.14
2022-12-09T04:21:18.407Z,1.20
2022-12-09T04:21:50.038Z,1.20
2022-12-09T04:22:21.950Z,1.16
2022-12-09T04:22:53.827Z,1.20
2022-12-09T04:23:25.357Z,1.21
2022-12-09T04:23:57.045Z,1.26
2022-12-09T04:24:28.882Z,1.28
2022-12-09T04:25:00.807Z,1.32
2022-12-09T04:25:32.770Z,1.38
2022-12-09T04:26:04.973Z,1.36
2022-12-09T04:26:36.843Z,1.30
2022-12-09T04:27:11.307Z,1.24
2022-12-09T04:27:42.974Z,1.16
2022-12-09T04:28:14.620Z,1.06
2022-12-09T04:28:46.162Z,0.98
2022-12-09T04:29:17.794Z,1.00
2022-12-09T04:29:49.364Z,1.03
2022-12-09T04:30:21.487Z,1.05
2022-12-09T04:30:53.012Z,0.90
2022-12-09T04:31:24.508Z,0.76
2022-12-09T04:31:56.394Z,0.83
2022-12-09T04:32:29.700Z,0.80
2022-12-09T04:33:01.651Z,0.80
2022-12-09T04:33:33.263Z,0.81
2022-12-09T04:34:09.192Z,0.80
2022-12-09T04:34:41.701Z,0.80
2022-12-09T04:35:13.252Z,0.80
2022-12-09T04:35:44.893Z,0.76
2022-12-09T04:36:18.109Z,0.76
2022-12-09T04:36:50.008Z,0.75
2022-12-09T04:37:21.530Z,0.75
2022-12-09T04:37:53.420Z,0.79
2022-12-09T04:38:25.256Z,0.84
2022-12-09T04:38:57.125Z,0.84
2022-12-09T04:39:28.654Z,0.85
2022-12-09T04:40:00.313Z,0.84
2022-12-09T04:40:31.982Z,0.85
2022-12-09T04:41:04.279Z,0.90
2022-12-09T04:41:36.907Z,0.90
2022-12-09T04:42:08.859Z,0.91
2022-12-09T04:42:40.480Z,0.93
2022-12-09T04:43:12.061Z,0.97
2022-12-09T04:43:43.985Z,0.97
2022-12-09T04:44:15.808Z,0.97
2022-12-09T04:44:47.298Z,0.98
2022-12-09T04:45:18.762Z,1.01
2022-12-09T04:45:50.298Z,1.02
2022-12-09T04:46:21.944Z,1.03
2022-12-09T04:46:54.187Z,1.05
2022-12-09T04:47:25.831Z,1.04
2022-12-09T04:48:01.227Z,1.03
2022-12-09T04:48:33.567Z,1.01
2022-12-09T04:49:05.364Z,1.04
2022-12-09T04:49:37.005Z,1.03
2022-12-09T04:50:09.381Z,1.02
2022-12-09T04:50:41.850Z,1.04
2022-12-09T04:51:14.932Z,1.03
2022-12-09T04:51:46.512Z,1.06
2022-12-09T04:52:18.610Z,1.10
2022-12-09T04:52:50.214Z,1.12
2022-12-09T04:53:21.933Z,1.11
2022-12-09T04:53:53.411Z,1.11
2022-12-09T04:54:25.496Z,1.09
2022-12-09T04:54:57.116Z,1.10
2022-12-09T04:55:28.759Z,1.10
2022-12-09T04:56:01.890Z,1.07
2022-12-09T04:56:33.397Z,1.08
2022-12-09T04:57:05.141Z,1.07
2022-12-09T04:57:36.999Z,1.05
2022-12-09T04:58:08.566Z,1.06
2022-12-09T04:58:40.589Z,1.03
2022-12-09T04:59:12.127Z,1.03
2022-12-09T04:59:44.058Z,1.08
2022-12-09T05:00:17.474Z,1.04
2022-12-09T05:00:49.056Z,1.05
2022-12-09T05:01:26.658Z,1.03
2022-12-09T05:02:02.386Z,1.03
2022-12-09T05:02:34.059Z,1.03
2022-12-09T05:03:05.946Z,1.05
2022-12-09T05:03:37.917Z,1.04
2022-12-09T05:04:10.357Z,1.02
2022-12-09T05:04:47.086Z,1.02
2022-12-09T05:05:19.272Z,1.05
2022-12-09T05:05:51.422Z,1.03
2022-12-09T05:06:23.715Z,0.99
2022-12-09T05:06:55.749Z,1.01
2022-12-09T05:07:28.457Z,1.00
2022-12-09T05:08:00.474Z,1.04
2022-12-09T05:08:32.587Z,0.98
2022-12-09T05:09:04.705Z,1.02
2022-12-09T05:09:36.754Z,1.07
2022-12-09T05:10:10.033Z,1.05
2022-12-09T05:10:46.895Z,1.04
2022-12-09T05:11:19.952Z,1.06
2022-12-09T05:11:53.649Z,1.03
2022-12-09T05:12:25.845Z,0.99
2022-12-09T05:12:57.771Z,1.02
2022-12-09T05:13:30.902Z,0.99
2022-12-09T05:14:02.997Z,1.00
2022-12-09T05:14:34.563Z,1.01
2022-12-09T05:15:07.053Z,0.98
2022-12-09T05:15:39.077Z,0.96
2022-12-09T05:16:16.384Z,0.99
2022-12-09T05:16:48.889Z,0.95
2022-12-09T05:17:21.040Z,0.96
2022-12-09T05:17:52.775Z,1.00
2022-12-09T05:18:24.933Z,0.97
2022-12-09T05:18:59.216Z,0.96
2022-12-09T05:19:30.957Z,0.97
2022-12-09T05:20:03.503Z,0.90
2022-12-09T05:20:38.976Z,0.93
2022-12-09T05:21:13.694Z,0.97
2022-12-09T05:21:46.376Z,0.97
2022-12-09T05:22:18.932Z,0.98
2022-12-09T05:22:51.965Z,1.01
2022-12-09T05:23:23.821Z,1.02
2022-12-09T05:23:55.382Z,1.00
2022-12-09T05:24:27.236Z,0.97
2022-12-09T05:24:58.971Z,0.89
2022-12-09T05:25:31.291Z,0.84
2022-12-09T05:26:04.652Z,0.82
2022-12-09T05:26:36.797Z,0.84
2022-12-09T05:27:08.720Z,0.85
2022-12-09T05:27:40.586Z,0.87
2022-12-09T05:28:12.966Z,0.90
2022-12-09T05:28:45.053Z,0.91
2022-12-09T05:29:21.020Z,0.91
2022-12-09T05:29:54.299Z,0.91
2022-12-09T05:30:26.111Z,0.92
2022-12-09T05:31:01.781Z,0.93
2022-12-09T05:31:33.612Z,0.87
2022-12-09T05:32:06.369Z,0.88
2022-12-09T05:32:37.988Z,0.81
2022-12-09T05:33:10.078Z,0.80
2022-12-09T05:33:42.288Z,0.83
2022-12-09T05:34:14.465Z,0.82
2022-12-09T05:34:46.311Z,0.82
2022-12-09T05:35:18.114Z,0.82
2022-12-09T05:35:53.064Z,0.85
2022-12-09T05:36:27.741Z,0.91
2022-12-09T05:37:00.138Z,0.95
2022-12-09T05:37:32.304Z,1.00
2022-12-09T05:38:04.458Z,0.96
2022-12-09T05:38:36.480Z,1.00
2022-12-09T05:39:08.388Z,1.01
2022-12-09T05:39:40.250Z,0.96
2022-12-09T05:40:12.510Z,0.91
2022-12-09T05:40:44.352Z,0.88
2022-12-09T05:41:16.547Z,0.92
2022-12-09T05:41:48.510Z,0.96
2022-12-09T05:42:20.056Z,0.95
2022-12-09T05:42:51.864Z,0.95
2022-12-09T05:43:23.383Z,0.93
2022-12-09T05:43:55.061Z,0.96
2022-12-09T05:44:26.822Z,0.91
2022-12-09T05:44:58.678Z,0.86
2022-12-09T05:45:30.639Z,0.84
2022-12-09T05:46:03.013Z,0.86
2022-12-09T05:46:34.719Z,0.82
2022-12-09T05:47:07.014Z,0.77
2022-12-09T05:47:39.531Z,0.76
2022-12-09T05:48:11.293Z,0.83
2022-12-09T05:48:43.456Z,0.86
2022-12-09T05:49:15.496Z,0.83
2022-12-09T05:49:47.184Z,0.85
2022-12-09T05:50:19.708Z,0.87
2022-12-09T05:51:05.940Z,0.85
2022-12-09T05:51:37.887Z,0.88
2022-12-09T05:52:11.043Z,0.90
2022-12-09T05:52:42.796Z,0.93
2022-12-09T05:53:14.602Z,0.88
2022-12-09T05:53:46.396Z,0.87
2022-12-09T05:54:18.709Z,0.78
2022-12-09T05:54:50.561Z,0.79
2022-12-09T05:55:22.607Z,0.77
2022-12-09T05:55:54.233Z,0.78
2022-12-09T05:56:26.738Z,0.67
2022-12-09T05:57:01.262Z,0.71
2022-12-09T05:57:36.700Z,0.72
2022-12-09T05:58:08.612Z,0.76
2022-12-09T05:58:40.291Z,0.85
2022-12-09T05:59:12.140Z,0.89
2022-12-09T05:59:43.726Z,0.84
2022-12-09T06:00:16.034Z,0.71
2022-12-09T06:00:48.437Z,0.74
2022-12-09T06:01:20.359Z,0.81
2022-12-09T06:01:53.888Z,0.80
2022-12-09T06:02:25.672Z,0.79
2022-12-09T06:02:57.728Z,0.79
2022-12-09T06:03:29.836Z,0.82
2022-12-09T06:04:01.757Z,0.84
2022-12-09T06:04:34.167Z,0.85
2022-12-09T06:05:06.782Z,0.90
2022-12-09T06:05:39.095Z,0.90
2022-12-09T06:06:17.665Z,0.82
2022-12-09T06:06:49.943Z,0.78
2022-12-09T06:07:21.781Z,0.81
2022-12-09T06:07:53.996Z,0.89
2022-12-09T06:08:26.084Z,0.91
2022-12-09T06:08:59.667Z,0.90
2022-12-09T06:09:31.628Z,0.87
2022-12-09T06:10:04.175Z,0.91
2022-12-09T06:10:39.592Z,0.89
2022-12-09T06:11:13.688Z,0.90
2022-12-09T06:11:45.556Z,0.91
2022-12-09T06:12:17.571Z,0.91
2022-12-09T06:12:49.601Z,0.96
2022-12-09T06:13:21.092Z,0.95
2022-12-09T06:13:53.596Z,0.90
2022-12-09T06:14:25.246Z,0.91
2022-12-09T06:14:56.766Z,0.89
2022-12-09T06:15:33.181Z,0.86
2022-12-09T06:16:06.200Z,1.01
2022-12-09T06:16:38.328Z,1.02
2022-12-09T06:17:10.457Z,0.93
2022-12-09T06:17:42.545Z,0.95
2022-12-09T06:18:14.537Z,1.02
2022-12-09T06:18:46.767Z,1.03
2022-12-09T06:19:18.921Z,1.00
2022-12-09T06:19:50.707Z,0.88
2022-12-09T06:20:22.282Z,0.87
2022-12-09T06:20:54.092Z,0.86
2022-12-09T06:21:26.027Z,0.83
2022-12-09T06:21:57.838Z,0.83
2022-12-09T06:22:29.421Z,0.80
2022-12-09T06:23:01.287Z,0.82
2022-12-09T06:23:35.529Z,0.85
2022-12-09T06:24:08.607Z,0.84
2022-12-09T06:24:40.527Z,0.81
2022-12-09T06:25:12.590Z,0.79
2022-12-09T06:25:45.825Z,0.77
2022-12-09T06:26:21.515Z,0.95
2022-12-09T06:26:54.454Z,0.97
2022-12-09T06:27:25.976Z,1.19
2022-12-09T06:28:16.826Z,1.32
2022-12-09T06:28:48.757Z,1.39
2022-12-09T06:29:20.714Z,1.43
2022-12-09T06:29:52.457Z,1.29
2022-12-09T06:30:24.000Z,1.24
2022-12-09T06:30:57.853Z,1.17
2022-12-09T06:31:30.097Z,1.14
2022-12-09T06:32:02.007Z,1.14
2022-12-09T06:32:33.760Z,1.10
2022-12-09T06:33:22.854Z,1.07
2022-12-09T06:33:58.702Z,1.06
2022-12-09T06:34:31.327Z,1.03
2022-12-09T06:35:03.814Z,1.05
2022-12-09T06:35:36.451Z,1.08
2022-12-09T06:36:09.073Z,1.06
2022-12-09T06:36:40.596Z,1.04
2022-12-09T06:37:12.247Z,1.02
2022-12-09T06:37:44.368Z,1.02
2022-12-09T06:38:15.911Z,1.00
2022-12-09T06:38:47.820Z,0.96
2022-12-09T06:39:19.482Z,0.95
2022-12-09T06:39:51.470Z,0.97
2022-12-09T06:40:23.474Z,0.96
2022-12-09T06:40:55.917Z,1.00
2022-12-09T06:41:27.635Z,0.98
2022-12-09T06:41:59.507Z,0.93
2022-12-09T06:42:31.306Z,0.90
2022-12-09T06:43:03.168Z,0.85
2022-12-09T06:43:35.185Z,0.87
2022-12-09T06:44:06.921Z,0.88
2022-12-09T06:44:40.249Z,0.92
2022-12-09T06:45:12.777Z,1.00
2022-12-09T06:45:44.637Z,0.97
2022-12-09T06:46:18.891Z,0.96
2022-12-09T06:46:51.309Z,0.95
2022-12-09T06:47:22.984Z,0.98
2022-12-09T06:47:55.186Z,1.00
2022-12-09T06:48:27.219Z,0.95
2022-12-09T06:48:59.461Z,0.91
2022-12-09T06:49:31.496Z,0.85
2022-12-09T06:50:06.943Z,0.87
2022-12-09T06:50:39.776Z,0.92
2022-12-09T06:51:12.003Z,0.98
2022-12-09T06:51:43.955Z,0.91
2022-12-09T06:52:15.958Z,0.95
2022-12-09T06:52:47.817Z,0.96
2022-12-09T06:53:19.382Z,0.89
2022-12-09T06:53:50.920Z,0.95
2022-12-09T06:54:22.578Z,0.93
2022-12-09T06:54:54.378Z,0.86
2022-12-09T06:55:26.153Z,0.91
2022-12-09T06:56:06.500Z,0.95
2022-12-09T06:56:43.103Z,0.97
2022-12-09T06:57:14.974Z,0.91
2022-12-09T06:57:46.767Z,0.89
2022-12-09T06:58:18.664Z,1.12
2022-12-09T06:58:50.604Z,1.19
2022-12-09T06:59:22.325Z,1.15
2022-12-09T06:59:53.963Z,1.11
2022-12-09T07:00:26.073Z,1.13
2022-12-09T07:01:05.462Z,1.08
2022-12-09T07:01:37.902Z,1.09
2022-12-09T07:02:10.925Z,1.02
2022-12-09T07:02:42.773Z,0.93
2022-12-09T07:03:14.609Z,0.92
2022-12-09T07:03:50.221Z,0.87
2022-12-09T07:04:23.242Z,0.91
2022-12-09T07:04:55.866Z,0.92
2022-12-09T07:05:28.177Z,0.90
2022-12-09T07:06:01.733Z,0.86
2022-12-09T07:06:33.754Z,0.87
2022-12-09T07:07:05.687Z,0.89
2022-12-09T07:07:37.531Z,0.93
2022-12-09T07:08:09.414Z,0.97
2022-12-09T07:08:41.075Z,0.99
2022-12-09T07:09:18.844Z,1.00
2022-12-09T07:09:51.127Z,1.01
2022-12-09T07:10:22.987Z,1.00
2022-12-09T07:10:56.910Z,1.00
2022-12-09T07:11:29.285Z,1.03
2022-12-09T07:12:01.216Z,0.99
2022-12-09T07:12:33.444Z,0.97
2022-12-09T07:13:04.936Z,1.05
2022-12-09T07:13:36.497Z,1.14
2022-12-09T07:14:09.968Z,1.21
2022-12-09T07:14:41.835Z,1.21
2022-12-09T07:15:14.693Z,1.19
2022-12-09T07:15:46.743Z,1.16
2022-12-09T07:16:19.318Z,1.14
2022-12-09T07:16:51.445Z,1.16
2022-12-09T07:17:23.350Z,1.21
2022-12-09T07:17:55.156Z,1.27
2022-12-09T07:18:27.591Z,1.28
2022-12-09T07:18:59.393Z,1.32
2022-12-09T07:19:31.327Z,1.30
2022-12-09T07:20:07.305Z,1.37
2022-12-09T07:20:39.812Z,1.37
2022-12-09T07:21:16.985Z,1.38
2022-12-09T07:21:50.180Z,1.38
2022-12-09T07:22:22.066Z,1.34
2022-12-09T07:22:53.849Z,1.23
2022-12-09T07:23:25.548Z,1.08
2022-12-09T07:24:01.407Z,1.00
2022-12-09T07:24:33.399Z,0.98
2022-12-09T07:25:06.029Z,0.99
2022-12-09T07:25:37.974Z,0.93
2022-12-09T07:26:10.130Z,0.88
2022-12-09T07:26:41.967Z,1.05
2022-12-09T07:27:19.239Z,1.14
2022-12-09T07:27:51.697Z,1.13
2022-12-09T07:28:23.862Z,1.07
2022-12-09T07:28:55.587Z,1.13
2022-12-09T07:29:27.687Z,1.19
2022-12-09T07:29:59.740Z,1.18
2022-12-09T07:30:31.634Z,1.15
2022-12-09T07:31:03.937Z,1.17
2022-12-09T07:31:36.471Z,1.20
2022-12-09T07:32:10.203Z,1.19